Quebradillas, Puerto Rico
Current Conditions -  °F | °C
As of 12:50 PM on Friday 24 Oct 2014 (Local Time) from TJBQ Reporting Station
Scattered Clouds Scattered Clouds  
Wind Chill: 86°   Ceiling: Unl
Heat Index: 95°   Visibility: 10mi
Dew Point: 75°   Wind: 5mph
Humidity: 70%   Direction: 360°N
Pressure: 29.92"   Gusts: NA
Location:  18.47°N, 66.94°W
Report Text: TJBQ 241650Z 36004KT 10SM SCT024 SCT031 SCT039 30/24 A2992 RMK RWY08 - ATIS W
Loading
Personal Weather Stations






























Interactive Weather Map
Tropical Storm Tracking
New forecast layout! Learn more

10-Day Weather Forecast

Advertisements
Track Severe Weather on mobile